GMTT/TNG METAR and TAF weather

Enter ICAO airport designator
Station Type Date Time Source
GMTT METAR 2022/06/25 23:30 UTC NOAA

GMTT 252330Z 19004KT 160V220 CAVOK 20/18 Q1013 NOSIG


Station Type Date Time Source
GMTT Decoded METAR 2022/06/25 23:30 UTC NOAA

Tanger Aerodrome , Morocco (GMTT) 35-44N 005-54W 21M
Jun 25, 2022 - 07:30 PM EDT / 2022.06.25 2330 UTC
Wind: from the S (190 degrees) at 5 MPH (4 KT) (direction variable):0
Visibility: greater than 7 mile(s):0
Temperature: 68 F (20 C)
Dew Point: 64 F (18 C)
Relative Humidity: 88%
Pressure (altimeter): 29.91 in. Hg (1013 hPa)
ob: GMTT 252330Z 19004KT 160V220 CAVOK 20/18 Q1013 NOSIG
cycle: 23

Station Type Date Time Source
GMTT TAF 2022/06/25 18:18 UTC NOAA

TAF GMTT 251700Z 2518/2624 33008KT CAVOK

Example: see airport list